sensor_id;sensor_type;location;lat;lon;timestamp;pressure;altitude;pressure_sealevel;temperature;humidity
37202;BME280;37799;52.390;6.136;2022-09-09T00:02:18;100707.25;;;15.34;100.00
37202;BME280;37799;52.390;6.136;2022-09-09T00:04:57;100712.78;;;15.28;100.00
37202;BME280;37799;52.390;6.136;2022-09-09T00:07:55;100720.88;;;15.22;100.00
37202;BME280;37799;52.390;6.136;2022-09-09T00:10:28;100731.03;;;15.28;100.00
37202;BME280;37799;52.390;6.136;2022-09-09T00:15:25;100726.25;;;15.38;100.00
37202;BME280;37799;52.390;6.136;2022-09-09T00:21:05;100736.03;;;15.33;100.00
37202;BME280;37799;52.390;6.136;2022-09-09T00:23:28;100732.81;;;15.28;100.00
37202;BME280;37799;52.390;6.136;2022-09-09T00:28:22;100724.97;;;15.28;100.00
37202;BME280;37799;52.390;6.136;2022-09-09T00:30:48;100715.72;;;15.21;100.00
37202;BME280;37799;52.390;6.136;2022-09-09T00:33:16;100718.56;;;15.16;100.00
37202;BME280;37799;52.390;6.136;2022-09-09T00:35:51;100719.72;;;15.11;100.00
37202;BME280;37799;52.390;6.136;2022-09-09T00:38:24;100717.94;;;15.11;100.00
37202;BME280;37799;52.390;6.136;2022-09-09T00:41:03;100720.25;;;15.17;100.00
37202;BME280;37799;52.390;6.136;2022-09-09T00:43:35;100716.09;;;15.13;100.00
37202;BME280;37799;52.390;6.136;2022-09-09T00:48:58;100720.56;;;15.11;100.00
37202;BME280;37799;52.390;6.136;2022-09-09T00:51:33;100714.41;;;15.12;100.00
37202;BME280;37799;52.390;6.136;2022-09-09T00:57:25;100719.91;;;15.06;100.00
37202;BME280;37799;52.390;6.136;2022-09-09T01:00:15;100710.47;;;15.03;100.00
37202;BME280;37799;52.390;6.136;2022-09-09T01:03:14;100718.38;;;15.02;100.00
37202;BME280;37799;52.390;6.136;2022-09-09T01:05:47;100714.69;;;15.06;100.00
37202;BME280;37799;52.390;6.136;2022-09-09T01:11:04;100709.88;;;14.97;100.00
37202;BME280;37799;52.390;6.136;2022-09-09T01:13:33;100703.00;;;14.96;100.00
37202;BME280;37799;52.390;6.136;2022-09-09T01:16:01;100703.84;;;14.96;100.00
37202;BME280;37799;52.390;6.136;2022-09-09T01:18:30;100702.38;;;14.91;100.00
37202;BME280;37799;52.390;6.136;2022-09-09T01:24:15;100690.75;;;14.98;100.00
37202;BME280;37799;52.390;6.136;2022-09-09T01:26:45;100699.75;;;14.91;100.00
37202;BME280;37799;52.390;6.136;2022-09-09T01:29:13;100695.69;;;14.85;100.00
37202;BME280;37799;52.390;6.136;2022-09-09T01:31:42;100703.78;;;14.98;100.00
37202;BME280;37799;52.390;6.136;2022-09-09T01:34:11;100698.91;;;14.90;100.00
37202;BME280;37799;52.390;6.136;2022-09-09T01:36:43;100694.75;;;14.86;100.00
37202;BME280;37799;52.390;6.136;2022-09-09T01:39:11;100688.97;;;14.80;100.00
37202;BME280;37799;52.390;6.136;2022-09-09T01:41:38;100701.09;;;14.81;100.00
37202;BME280;37799;52.390;6.136;2022-09-09T01:44:03;100698.63;;;14.78;100.00
37202;BME280;37799;52.390;6.136;2022-09-09T01:46:29;100706.53;;;14.76;100.00
37202;BME280;37799;52.390;6.136;2022-09-09T01:48:55;100700.72;;;14.69;100.00
37202;BME280;37799;52.390;6.136;2022-09-09T01:51:22;100705.81;;;14.72;100.00
37202;BME280;37799;52.390;6.136;2022-09-09T01:53:48;100708.91;;;14.81;100.00
37202;BME280;37799;52.390;6.136;2022-09-09T01:56:17;100710.97;;;14.74;100.00
37202;BME280;37799;52.390;6.136;2022-09-09T01:58:56;100704.13;;;14.71;100.00
37202;BME280;37799;52.390;6.136;2022-09-09T02:01:57;100706.53;;;14.76;100.00
37202;BME280;37799;52.390;6.136;2022-09-09T02:06:58;100714.41;;;14.74;100.00
37202;BME280;37799;52.390;6.136;2022-09-09T02:09:26;100701.56;;;14.70;100.00
37202;BME280;37799;52.390;6.136;2022-09-09T02:12:04;100713.06;;;14.66;100.00
37202;BME280;37799;52.390;6.136;2022-09-09T02:14:36;100701.00;;;14.63;100.00
37202;BME280;37799;52.390;6.136;2022-09-09T02:17:09;100696.09;;;14.76;100.00
37202;BME280;37799;52.390;6.136;2022-09-09T02:19:39;100701.09;;;14.81;100.00
37202;BME280;37799;52.390;6.136;2022-09-09T02:22:07;100704.69;;;14.78;100.00
37202;BME280;37799;52.390;6.136;2022-09-09T02:24:35;100698.91;;;14.71;100.00
37202;BME280;37799;52.390;6.136;2022-09-09T02:27:03;100696.91;;;14.58;100.00
37202;BME280;37799;52.390;6.136;2022-09-09T02:29:33;100696.97;;;14.56;100.00
37202;BME280;37799;52.390;6.136;2022-09-09T02:32:05;100688.75;;;14.65;100.00
37202;BME280;37799;52.390;6.136;2022-09-09T02:34:34;100697.88;;;14.55;100.00
37202;BME280;37799;52.390;6.136;2022-09-09T02:37:03;100694.81;;;14.47;100.00
37202;BME280;37799;52.390;6.136;2022-09-09T02:39:29;100693.19;;;14.43;100.00
37202;BME280;37799;52.390;6.136;2022-09-09T02:41:54;100694.31;;;14.37;100.00
37202;BME280;37799;52.390;6.136;2022-09-09T02:44:19;100693.72;;;14.31;100.00
37202;BME280;37799;52.390;6.136;2022-09-09T02:47:43;100688.78;;;14.25;100.00
37202;BME280;37799;52.390;6.136;2022-09-09T02:50:12;100678.63;;;14.18;100.00
37202;BME280;37799;52.390;6.136;2022-09-09T02:58:03;100691.53;;;14.01;100.00
37202;BME280;37799;52.390;6.136;2022-09-09T03:00:31;100687.16;;;14.02;100.00
37202;BME280;37799;52.390;6.136;2022-09-09T03:02:57;100693.75;;;13.90;100.00
37202;BME280;37799;52.390;6.136;2022-09-09T03:05:22;100687.56;;;13.93;100.00
37202;BME280;37799;52.390;6.136;2022-09-09T03:07:48;100686.00;;;13.88;100.00
37202;BME280;37799;52.390;6.136;2022-09-09T03:10:16;100688.53;;;13.90;100.00
37202;BME280;37799;52.390;6.136;2022-09-09T03:12:42;100687.13;;;13.83;100.00
37202;BME280;37799;52.390;6.136;2022-09-09T03:15:08;100691.47;;;13.82;100.00
37202;BME280;37799;52.390;6.136;2022-09-09T03:17:33;100696.22;;;13.73;100.00
37202;BME280;37799;52.390;6.136;2022-09-09T03:19:59;100701.66;;;13.67;100.00
37202;BME280;37799;52.390;6.136;2022-09-09T03:22:24;100700.63;;;13.71;100.00
37202;BME280;37799;52.390;6.136;2022-09-09T03:24:53;100694.75;;;13.66;100.00
37202;BME280;37799;52.390;6.136;2022-09-09T03:27:18;100681.16;;;13.59;100.00
37202;BME280;37799;52.390;6.136;2022-09-09T03:29:44;100696.00;;;13.57;100.00
37202;BME280;37799;52.390;6.136;2022-09-09T03:32:10;100689.53;;;13.66;100.00
37202;BME280;37799;52.390;6.136;2022-09-09T03:34:35;100685.66;;;13.55;100.00
37202;BME280;37799;52.390;6.136;2022-09-09T03:37:04;100677.94;;;13.52;100.00
37202;BME280;37799;52.390;6.136;2022-09-09T03:39:30;100682.56;;;13.46;100.00
37202;BME280;37799;52.390;6.136;2022-09-09T03:41:55;100684.75;;;13.56;100.00
37202;BME280;37799;52.390;6.136;2022-09-09T03:44:20;100693.03;;;13.44;100.00
37202;BME280;37799;52.390;6.136;2022-09-09T03:46:45;100688.63;;;13.46;100.00
37202;BME280;37799;52.390;6.136;2022-09-09T03:49:11;100686.91;;;13.45;100.00
37202;BME280;37799;52.390;6.136;2022-09-09T03:51:36;100694.88;;;13.41;100.00
37202;BME280;37799;52.390;6.136;2022-09-09T03:54:01;100698.47;;;13.38;100.00
37202;BME280;37799;52.390;6.136;2022-09-09T03:56:30;100694.88;;;13.41;100.00
37202;BME280;37799;52.390;6.136;2022-09-09T03:58:55;100692.47;;;13.36;100.00
37202;BME280;37799;52.390;6.136;2022-09-09T04:01:20;100694.44;;;13.31;100.00
37202;BME280;37799;52.390;6.136;2022-09-09T04:03:46;100693.19;;;13.40;100.00
37202;BME280;37799;52.390;6.136;2022-09-09T04:06:12;100694.53;;;13.28;100.00
37202;BME280;37799;52.390;6.136;2022-09-09T04:08:39;100694.78;;;13.22;100.00
37202;BME280;37799;52.390;6.136;2022-09-09T04:11:05;100689.84;;;13.14;100.00
37202;BME280;37799;52.390;6.136;2022-09-09T04:13:34;100684.69;;;13.13;100.00
37202;BME280;37799;52.390;6.136;2022-09-09T04:16:01;100684.69;;;13.13;100.00
37202;BME280;37799;52.390;6.136;2022-09-09T04:18:27;100679.44;;;13.14;100.00
37202;BME280;37799;52.390;6.136;2022-09-09T04:20:56;100685.38;;;13.18;100.00
37202;BME280;37799;52.390;6.136;2022-09-09T04:23:23;100693.47;;;13.10;100.00
37202;BME280;37799;52.390;6.136;2022-09-09T04:25:52;100686.97;;;13.22;100.00
37202;BME280;37799;52.390;6.136;2022-09-09T04:28:19;100690.66;;;13.16;100.00
37202;BME280;37799;52.390;6.136;2022-09-09T04:30:45;100692.31;;;13.19;100.00
37202;BME280;37799;52.390;6.136;2022-09-09T04:33:11;100681.94;;;13.17;100.00
37202;BME280;37799;52.390;6.136;2022-09-09T04:35:37;100674.09;;;13.19;100.00
37202;BME280;37799;52.390;6.136;2022-09-09T04:38:03;100679.19;;;13.22;100.00
37202;BME280;37799;52.390;6.136;2022-09-09T04:40:30;100679.84;;;13.27;100.00
37202;BME280;37799;52.390;6.136;2022-09-09T04:43:01;100679.97;;;13.24;100.00
37202;BME280;37799;52.390;6.136;2022-09-09T04:45:28;100677.22;;;13.27;100.00
37202;BME280;37799;52.390;6.136;2022-09-09T04:47:54;100678.91;;;13.28;100.00
37202;BME280;37799;52.390;6.136;2022-09-09T04:50:19;100688.38;;;13.31;100.00
37202;BME280;37799;52.390;6.136;2022-09-09T04:52:44;100680.53;;;13.32;100.00
37202;BME280;37799;52.390;6.136;2022-09-09T04:55:10;100685.88;;;13.27;100.00
37202;BME280;37799;52.390;6.136;2022-09-09T04:57:36;100684.25;;;13.25;100.00
37202;BME280;37799;52.390;6.136;2022-09-09T05:00:02;100684.13;;;13.28;100.00
37202;BME280;37799;52.390;6.136;2022-09-09T05:02:28;100684.75;;;13.35;100.00
37202;BME280;37799;52.390;6.136;2022-09-09T05:04:54;100692.41;;;13.38;100.00
37202;BME280;37799;52.390;6.136;2022-09-09T05:07:19;100686.84;;;13.47;100.00
37202;BME280;37799;52.390;6.136;2022-09-09T05:09:44;100690.78;;;13.57;100.00
37202;BME280;37799;52.390;6.136;2022-09-09T05:12:10;100683.28;;;13.49;100.00
37202;BME280;37799;52.390;6.136;2022-09-09T05:14:36;100684.00;;;13.53;100.00
37202;BME280;37799;52.390;6.136;2022-09-09T05:17:03;100681.81;;;13.64;100.00
37202;BME280;37799;52.390;6.136;2022-09-09T05:19:28;100680.59;;;13.73;100.00
37202;BME280;37799;52.390;6.136;2022-09-09T05:21:54;100681.56;;;13.70;100.00
37202;BME280;37799;52.390;6.136;2022-09-09T05:24:19;100676.50;;;13.67;100.00
37202;BME280;37799;52.390;6.136;2022-09-09T05:26:44;100680.59;;;13.73;100.00
37202;BME280;37799;52.390;6.136;2022-09-09T05:29:10;100673.69;;;13.72;100.00
37202;BME280;37799;52.390;6.136;2022-09-09T05:31:35;100671.75;;;13.77;100.00
37202;BME280;37799;52.390;6.136;2022-09-09T05:34:00;100669.88;;;13.80;100.00
37202;BME280;37799;52.390;6.136;2022-09-09T05:36:26;100674.59;;;13.91;100.00
37202;BME280;37799;52.390;6.136;2022-09-09T05:38:51;100670.06;;;13.96;100.00
37202;BME280;37799;52.390;6.136;2022-09-09T05:41:19;100662.97;;;14.00;100.00
37202;BME280;37799;52.390;6.136;2022-09-09T05:43:45;100669.88;;;14.01;100.00
37202;BME280;37799;52.390;6.136;2022-09-09T05:46:14;100669.63;;;14.07;100.00
37202;BME280;37799;52.390;6.136;2022-09-09T05:48:41;100669.78;;;14.02;100.00
37202;BME280;37799;52.390;6.136;2022-09-09T05:51:09;100677.53;;;14.04;100.00
37202;BME280;37799;52.390;6.136;2022-09-09T05:53:35;100674.09;;;14.03;100.00
37202;BME280;37799;52.390;6.136;2022-09-09T05:56:03;100673.06;;;14.07;100.00
37202;BME280;37799;52.390;6.136;2022-09-09T05:58:32;100673.78;;;14.11;100.00
37202;BME280;37799;52.390;6.136;2022-09-09T06:01:12;100687.25;;;14.21;100.00
37202;BME280;37799;52.390;6.136;2022-09-09T06:03:40;100687.03;;;14.25;100.00
37202;BME280;37799;52.390;6.136;2022-09-09T06:06:07;100685.50;;;14.21;100.00
37202;BME280;37799;52.390;6.136;2022-09-09T06:08:35;100694.16;;;14.22;100.00
37202;BME280;37799;52.390;6.136;2022-09-09T06:11:05;100689.88;;;14.19;100.00
37202;BME280;37799;52.390;6.136;2022-09-09T06:13:31;100695.00;;;14.22;100.00
37202;BME280;37799;52.390;6.136;2022-09-09T06:15:57;100691.47;;;14.23;100.00
37202;BME280;37799;52.390;6.136;2022-09-09T06:18:23;100679.78;;;14.32;100.00
37202;BME280;37799;52.390;6.136;2022-09-09T06:21:03;100680.59;;;14.34;100.00
37202;BME280;37799;52.390;6.136;2022-09-09T06:23:32;100688.97;;;14.40;100.00
37202;BME280;37799;52.390;6.136;2022-09-09T06:26:02;100686.44;;;14.39;100.00
37202;BME280;37799;52.390;6.136;2022-09-09T06:28:28;100684.38;;;14.47;100.00
37202;BME280;37799;52.390;6.136;2022-09-09T06:31:05;100685.16;;;14.49;100.00
37202;BME280;37799;52.390;6.136;2022-09-09T06:33:32;100677.81;;;14.57;100.00
37202;BME280;37799;52.390;6.136;2022-09-09T06:35:59;100671.44;;;14.64;100.00
37202;BME280;37799;52.390;6.136;2022-09-09T06:38:25;100680.53;;;14.74;100.00
37202;BME280;37799;52.390;6.136;2022-09-09T06:40:52;100679.25;;;14.83;100.00
37202;BME280;37799;52.390;6.136;2022-09-09T06:43:19;100682.69;;;14.84;100.00
37202;BME280;37799;52.390;6.136;2022-09-09T06:45:59;100680.50;;;14.93;100.00
37202;BME280;37799;52.390;6.136;2022-09-09T06:48:25;100686.16;;;15.03;100.00
37202;BME280;37799;52.390;6.136;2022-09-09T06:51:04;100681.75;;;15.22;100.00
37202;BME280;37799;52.390;6.136;2022-09-09T06:53:31;100689.16;;;15.49;100.00
37202;BME280;37799;52.390;6.136;2022-09-09T06:55:58;100690.16;;;15.65;100.00
37202;BME280;37799;52.390;6.136;2022-09-09T06:58:24;100692.78;;;15.65;100.00
37202;BME280;37799;52.390;6.136;2022-09-09T07:00:49;100697.84;;;15.68;100.00
37202;BME280;37799;52.390;6.136;2022-09-09T07:03:14;100693.00;;;15.78;100.00
37202;BME280;37799;52.390;6.136;2022-09-09T07:05:40;100698.06;;;16.15;100.00
37202;BME280;37799;52.390;6.136;2022-09-09T07:08:05;100692.84;;;16.48;100.00
37202;BME280;37799;52.390;6.136;2022-09-09T07:10:31;100702.31;;;16.84;100.00
37202;BME280;37799;52.390;6.136;2022-09-09T07:12:56;100702.38;;;17.30;100.00
37202;BME280;37799;52.390;6.136;2022-09-09T07:15:22;100693.34;;;17.51;100.00
37202;BME280;37799;52.390;6.136;2022-09-09T07:17:48;100697.06;;;17.47;100.00
37202;BME280;37799;52.390;6.136;2022-09-09T07:20:14;100689.53;;;17.41;100.00
37202;BME280;37799;52.390;6.136;2022-09-09T07:22:40;100694.72;;;17.27;100.00
37202;BME280;37799;52.390;6.136;2022-09-09T07:25:05;100690.84;;;17.02;100.00
37202;BME280;37799;52.390;6.136;2022-09-09T07:27:31;100690.09;;;17.00;100.00
37202;BME280;37799;52.390;6.136;2022-09-09T07:29:56;100689.91;;;16.88;100.00
37202;BME280;37799;52.390;6.136;2022-09-09T07:32:22;100695.28;;;16.69;100.00
37202;BME280;37799;52.390;6.136;2022-09-09T07:34:47;100698.19;;;16.63;100.00
37202;BME280;37799;52.390;6.136;2022-09-09T07:37:13;100696.22;;;16.50;100.00
37202;BME280;37799;52.390;6.136;2022-09-09T07:39:39;100702.91;;;16.56;100.00
37202;BME280;37799;52.390;6.136;2022-09-09T07:42:05;100699.53;;;16.54;100.00
37202;BME280;37799;52.390;6.136;2022-09-09T07:44:30;100696.41;;;16.96;100.00
37202;BME280;37799;52.390;6.136;2022-09-09T07:47:00;100693.72;;;17.14;100.00
37202;BME280;37799;52.390;6.136;2022-09-09T07:49:25;100693.84;;;17.42;100.00
37202;BME280;37799;52.390;6.136;2022-09-09T07:51:50;100698.16;;;17.89;100.00
37202;BME280;37799;52.390;6.136;2022-09-09T07:54:17;100699.91;;;18.18;100.00
37202;BME280;37799;52.390;6.136;2022-09-09T07:56:45;100695.50;;;18.33;100.00
37202;BME280;37799;52.390;6.136;2022-09-09T07:59:12;100699.56;;;18.24;100.00
37202;BME280;37799;52.390;6.136;2022-09-09T08:01:40;100708.19;;;18.55;100.00
37202;BME280;37799;52.390;6.136;2022-09-09T08:04:15;100696.03;;;18.68;100.00
37202;BME280;37799;52.390;6.136;2022-09-09T08:06:44;100702.09;;;18.54;100.00
37202;BME280;37799;52.390;6.136;2022-09-09T08:09:11;100695.84;;;18.71;100.00
37202;BME280;37799;52.390;6.136;2022-09-09T08:11:38;100700.56;;;19.07;100.00
37202;BME280;37799;52.390;6.136;2022-09-09T08:14:04;100704.63;;;19.26;100.00
37202;BME280;37799;52.390;6.136;2022-09-09T08:16:32;100704.13;;;19.06;100.00
37202;BME280;37799;52.390;6.136;2022-09-09T08:18:58;100710.91;;;19.23;100.00
37202;BME280;37799;52.390;6.136;2022-09-09T08:21:26;100706.66;;;19.08;100.00
37202;BME280;37799;52.390;6.136;2022-09-09T08:23:53;100707.69;;;19.05;100.00
37202;BME280;37799;52.390;6.136;2022-09-09T08:26:21;100711.66;;;18.70;100.00
37202;BME280;37799;52.390;6.136;2022-09-09T08:28:48;100712.03;;;18.78;100.00
37202;BME280;37799;52.390;6.136;2022-09-09T08:31:17;100713.53;;;18.68;100.00
37202;BME280;37799;52.390;6.136;2022-09-09T08:33:43;100712.28;;;18.45;100.00
37202;BME280;37799;52.390;6.136;2022-09-09T08:36:13;100715.63;;;18.18;100.00
37202;BME280;37799;52.390;6.136;2022-09-09T08:38:41;100718.38;;;18.31;100.00
37202;BME280;37799;52.390;6.136;2022-09-09T08:41:30;100714.97;;;18.15;100.00
37202;BME280;37799;52.390;6.136;2022-09-09T08:44:20;100716.81;;;17.98;100.00
37202;BME280;37799;52.390;6.136;2022-09-09T08:51:56;100727.78;;;18.19;100.00
37202;BME280;37799;52.390;6.136;2022-09-09T08:54:22;100724.63;;;18.14;100.00
37202;BME280;37799;52.390;6.136;2022-09-09T08:56:48;100719.84;;;18.35;100.00
37202;BME280;37799;52.390;6.136;2022-09-09T08:59:17;100728.31;;;18.54;100.00
37202;BME280;37799;52.390;6.136;2022-09-09T09:01:53;100718.88;;;18.80;100.00
37202;BME280;37799;52.390;6.136;2022-09-09T09:04:33;100731.00;;;19.10;100.00
37202;BME280;37799;52.390;6.136;2022-09-09T09:07:31;100722.19;;;19.11;100.00
37202;BME280;37799;52.390;6.136;2022-09-09T09:12:42;100732.94;;;19.35;100.00
37202;BME280;37799;52.390;6.136;2022-09-09T09:15:17;100734.88;;;19.45;100.00
37202;BME280;37799;52.390;6.136;2022-09-09T09:17:43;100734.75;;;19.47;100.00
37202;BME280;37799;52.390;6.136;2022-09-09T09:20:13;100729.72;;;19.03;100.00
37202;BME280;37799;52.390;6.136;2022-09-09T09:22:50;100740.06;;;18.92;100.00
37202;BME280;37799;52.390;6.136;2022-09-09T09:25:26;100736.56;;;18.63;100.00
37202;BME280;37799;52.390;6.136;2022-09-09T09:30:42;100733.38;;;18.57;100.00
37202;BME280;37799;52.390;6.136;2022-09-09T09:33:28;100739.13;;;18.64;100.00
37202;BME280;37799;52.390;6.136;2022-09-09T09:35:55;100737.94;;;18.40;100.00
37202;BME280;37799;52.390;6.136;2022-09-09T09:38:23;100734.50;;;18.39;100.00
37202;BME280;37799;52.390;6.136;2022-09-09T09:40:51;100737.47;;;18.47;100.00
37202;BME280;37799;52.390;6.136;2022-09-09T09:43:23;100745.63;;;18.43;100.00
37202;BME280;37799;52.390;6.136;2022-09-09T09:45:50;100746.47;;;18.43;100.00
37202;BME280;37799;52.390;6.136;2022-09-09T09:48:15;100740.69;;;18.52;100.00
37202;BME280;37799;52.390;6.136;2022-09-09T09:50:52;100745.88;;;18.68;100.00
37202;BME280;37799;52.390;6.136;2022-09-09T09:53:24;100746.78;;;18.81;100.00
37202;BME280;37799;52.390;6.136;2022-09-09T09:56:01;100742.94;;;18.73;100.00
37202;BME280;37799;52.390;6.136;2022-09-09T09:58:31;100746.59;;;18.70;100.00
37202;BME280;37799;52.390;6.136;2022-09-09T10:00:59;100755.69;;;18.65;100.00
37202;BME280;37799;52.390;6.136;2022-09-09T10:03:32;100738.19;;;18.65;100.00
37202;BME280;37799;52.390;6.136;2022-09-09T10:06:03;100742.09;;;18.72;100.00
37202;BME280;37799;52.390;6.136;2022-09-09T10:08:29;100747.53;;;18.69;100.00
37202;BME280;37799;52.390;6.136;2022-09-09T10:11:25;100751.81;;;18.56;100.00
37202;BME280;37799;52.390;6.136;2022-09-09T10:14:08;100749.72;;;18.33;100.00
37202;BME280;37799;52.390;6.136;2022-09-09T10:17:25;100751.78;;;18.27;100.00
37202;BME280;37799;52.390;6.136;2022-09-09T10:19:33;100757.69;;;18.31;100.00
37202;BME280;37799;52.390;6.136;2022-09-09T10:35:31;100750.81;;;19.42;100.00
37202;BME280;37799;52.390;6.136;2022-09-09T10:38:17;100742.69;;;19.33;100.00
37202;BME280;37799;52.390;6.136;2022-09-09T10:40:45;100737.47;;;19.19;100.00
37202;BME280;37799;52.390;6.136;2022-09-09T10:43:22;100745.06;;;19.09;100.00
37202;BME280;37799;52.390;6.136;2022-09-09T10:46:18;100735.75;;;18.91;100.00
37202;BME280;37799;52.390;6.136;2022-09-09T10:51:36;100735.88;;;19.84;100.00
37202;BME280;37799;52.390;6.136;2022-09-09T10:56:54;100733.78;;;21.04;100.00
37202;BME280;37799;52.390;6.136;2022-09-09T10:59:26;100738.91;;;21.31;100.00
37202;BME280;37799;52.390;6.136;2022-09-09T11:02:19;100734.41;;;21.44;100.00
37202;BME280;37799;52.390;6.136;2022-09-09T11:04:52;100735.50;;;21.41;100.00
37202;BME280;37799;52.390;6.136;2022-09-09T11:07:25;100731.06;;;21.42;100.00
37202;BME280;37799;52.390;6.136;2022-09-09T11:09:57;100728.13;;;20.97;100.00
37202;BME280;37799;52.390;6.136;2022-09-09T11:12:26;100740.56;;;20.70;100.00
37202;BME280;37799;52.390;6.136;2022-09-09T11:15:43;100725.09;;;20.14;100.00
37202;BME280;37799;52.390;6.136;2022-09-09T11:18:03;100727.81;;;20.25;100.00
37202;BME280;37799;52.390;6.136;2022-09-09T11:20:29;100743.59;;;20.13;100.00
37202;BME280;37799;52.390;6.136;2022-09-09T11:25:37;100732.66;;;19.52;100.00
37202;BME280;37799;52.390;6.136;2022-09-09T11:28:14;100741.78;;;19.61;100.00
37202;BME280;37799;52.390;6.136;2022-09-09T11:31:00;100732.56;;;19.27;100.00
37202;BME280;37799;52.390;6.136;2022-09-09T11:33:37;100732.06;;;19.07;100.00
37202;BME280;37799;52.390;6.136;2022-09-09T11:38:52;100732.34;;;19.71;100.00
37202;BME280;37799;52.390;6.136;2022-09-09T11:41:19;100743.03;;;20.47;100.00
37202;BME280;37799;52.390;6.136;2022-09-09T11:46:13;100735.81;;;21.00;100.00
37202;BME280;37799;52.390;6.136;2022-09-09T11:48:42;100742.75;;;21.01;100.00
37202;BME280;37799;52.390;6.136;2022-09-09T11:51:33;100738.34;;;20.89;100.00
37202;BME280;37799;52.390;6.136;2022-09-09T11:54:02;100739.09;;;20.91;100.00
37202;BME280;37799;52.390;6.136;2022-09-09T11:56:41;100737.50;;;20.25;100.00
37202;BME280;37799;52.390;6.136;2022-09-09T11:59:28;100732.03;;;20.15;100.00
37202;BME280;37799;52.390;6.136;2022-09-09T12:01:57;100729.19;;;20.31;100.00
37202;BME280;37799;52.390;6.136;2022-09-09T12:06:59;100720.41;;;20.45;100.00
37202;BME280;37799;52.390;6.136;2022-09-09T12:09:27;100720.47;;;20.56;100.00
37202;BME280;37799;52.390;6.136;2022-09-09T12:14:37;100724.72;;;20.58;100.00
37202;BME280;37799;52.390;6.136;2022-09-09T12:17:18;100728.44;;;20.16;100.00
37202;BME280;37799;52.390;6.136;2022-09-09T12:19:44;100721.69;;;19.99;100.00
37202;BME280;37799;52.390;6.136;2022-09-09T12:22:27;100730.16;;;19.51;100.00
37202;BME280;37799;52.390;6.136;2022-09-09T12:25:08;100732.38;;;19.30;100.00
37202;BME280;37799;52.390;6.136;2022-09-09T12:30:16;100735.38;;;20.04;100.00
37202;BME280;37799;52.390;6.136;2022-09-09T12:32:42;100731.41;;;20.37;100.00
37202;BME280;37799;52.390;6.136;2022-09-09T12:35:12;100737.56;;;20.50;100.00
37202;BME280;37799;52.390;6.136;2022-09-09T12:37:55;100730.34;;;20.40;100.00
37202;BME280;37799;52.390;6.136;2022-09-09T12:40:32;100728.81;;;20.63;100.00
37202;BME280;37799;52.390;6.136;2022-09-09T12:43:00;100726.31;;;21.10;100.00
37202;BME280;37799;52.390;6.136;2022-09-09T12:45:29;100723.16;;;21.05;100.00
37202;BME280;37799;52.390;6.136;2022-09-09T12:48:00;100716.88;;;20.82;100.00
37202;BME280;37799;52.390;6.136;2022-09-09T12:50:30;100713.13;;;20.74;100.00
37202;BME280;37799;52.390;6.136;2022-09-09T12:53:13;100723.78;;;20.59;100.00
37202;BME280;37799;52.390;6.136;2022-09-09T12:55:49;100714.59;;;20.52;100.00
37202;BME280;37799;52.390;6.136;2022-09-09T12:58:17;100715.13;;;20.32;100.00
37202;BME280;37799;52.390;6.136;2022-09-09T13:00:51;100710.44;;;19.97;100.00
37202;BME280;37799;52.390;6.136;2022-09-09T13:03:18;100716.03;;;19.93;100.00
37202;BME280;37799;52.390;6.136;2022-09-09T13:05:45;100710.13;;;19.89;100.00
37202;BME280;37799;52.390;6.136;2022-09-09T13:08:13;100712.22;;;19.84;100.00
37202;BME280;37799;52.390;6.136;2022-09-09T13:11:00;100703.34;;;19.72;100.00
37202;BME280;37799;52.390;6.136;2022-09-09T13:13:30;100704.84;;;19.89;100.00
37202;BME280;37799;52.390;6.136;2022-09-09T13:15:59;100705.66;;;19.77;100.00
37202;BME280;37799;52.390;6.136;2022-09-09T13:18:30;100690.72;;;19.65;100.00
37202;BME280;37799;52.390;6.136;2022-09-09T13:20:57;100693.06;;;19.69;100.00
37202;BME280;37799;52.390;6.136;2022-09-09T13:23:34;100697.38;;;19.70;100.00
37202;BME280;37799;52.390;6.136;2022-09-09T13:26:24;100698.47;;;19.54;100.00
37202;BME280;37799;52.390;6.136;2022-09-09T13:28:50;100684.75;;;19.49;100.00
37202;BME280;37799;52.390;6.136;2022-09-09T13:31:29;100698.31;;;19.69;100.00
37202;BME280;37799;52.390;6.136;2022-09-09T13:33:56;100693.31;;;20.04;100.00
37202;BME280;37799;52.390;6.136;2022-09-09T13:36:30;100693.75;;;20.24;100.00
37202;BME280;37799;52.390;6.136;2022-09-09T13:38:58;100695.94;;;20.30;100.00
37202;BME280;37799;52.390;6.136;2022-09-09T13:41:29;100687.13;;;20.44;100.00
37202;BME280;37799;52.390;6.136;2022-09-09T13:43:56;100680.94;;;20.57;100.00
37202;BME280;37799;52.390;6.136;2022-09-09T13:46:36;100686.91;;;20.09;100.00
37202;BME280;37799;52.390;6.136;2022-09-09T13:49:19;100679.44;;;20.15;100.00
37202;BME280;37799;52.390;6.136;2022-09-09T13:51:50;100683.22;;;19.98;100.00
37202;BME280;37799;52.390;6.136;2022-09-09T13:54:19;100679.88;;;20.09;100.00
37202;BME280;37799;52.390;6.136;2022-09-09T13:56:45;100686.28;;;20.18;100.00
37202;BME280;37799;52.390;6.136;2022-09-09T13:59:16;100696.28;;;20.25;100.00
37202;BME280;37799;52.390;6.136;2022-09-09T14:01:43;100682.63;;;20.08;100.00
37202;BME280;37799;52.390;6.136;2022-09-09T14:04:09;100684.06;;;20.12;100.00
37202;BME280;37799;52.390;6.136;2022-09-09T14:06:36;100685.34;;;19.93;100.00
37202;BME280;37799;52.390;6.136;2022-09-09T14:09:04;100683.09;;;19.87;100.00
37202;BME280;37799;52.390;6.136;2022-09-09T14:11:29;100681.28;;;19.75;100.00